createdAt,value
2022-08-17T00:01:32.713Z,35.25
2022-08-17T00:04:18.564Z,38.47
2022-08-17T00:06:45.920Z,33.47
2022-08-17T00:09:18.895Z,36.38
2022-08-17T00:12:42.216Z,33.05
2022-08-17T00:14:35.143Z,34.97
2022-08-17T00:17:04.474Z,35.78
2022-08-17T00:19:31.705Z,31.25
2022-08-17T00:22:32.378Z,34.95
2022-08-17T00:24:46.369Z,28.48
2022-08-17T00:27:13.694Z,34.97
2022-08-17T00:29:40.925Z,36.33
2022-08-17T00:33:11.678Z,36.50
2022-08-17T00:34:56.823Z,34.22
2022-08-17T00:37:25.067Z,32.38
2022-08-17T00:39:53.596Z,34.38
2022-08-17T00:42:20.851Z,37.30
2022-08-17T00:44:48.091Z,22.08
2022-08-17T00:47:16.689Z,35.45
2022-08-17T00:49:43.932Z,33.40
2022-08-17T00:52:14.444Z,23.55
2022-08-17T00:54:42.747Z,30.42
2022-08-17T00:57:11.628Z,31.13
2022-08-17T00:59:39.836Z,32.40
2022-08-17T01:02:08.387Z,33.40
2022-08-17T01:04:38.314Z,22.67
2022-08-17T01:07:07.515Z,32.25
2022-08-17T01:09:34.856Z,25.58
2022-08-17T01:12:02.283Z,35.38
2022-08-17T01:14:29.631Z,35.15
2022-08-17T01:16:56.990Z,28.52
2022-08-17T01:19:25.463Z,38.58
2022-08-17T01:21:58.279Z,33.65
2022-08-17T01:24:28.650Z,29.13
2022-08-17T01:26:56.679Z,27.88
2022-08-17T01:29:25.415Z,19.30
2022-08-17T01:31:54.232Z,14.75
2022-08-17T01:34:50.167Z,14.25
2022-08-17T01:37:46.483Z,14.82
2022-08-17T01:40:17.154Z,12.15
2022-08-17T01:42:46.083Z,8.25
2022-08-17T01:45:15.361Z,16.73
2022-08-17T01:47:42.607Z,18.50
2022-08-17T01:50:11.489Z,18.15
2022-08-17T01:53:04.992Z,15.68
2022-08-17T01:55:35.701Z,8.32
2022-08-17T01:58:02.983Z,17.38
2022-08-17T02:00:59.726Z,17.40
2022-08-17T02:06:54.564Z,19.27
2022-08-17T02:09:23.364Z,12.23
2022-08-17T02:11:54.339Z,16.65
2022-08-17T02:14:21.751Z,18.13
2022-08-17T02:16:48.966Z,13.05
2022-08-17T02:19:16.529Z,13.77
2022-08-17T02:21:45.719Z,15.25
2022-08-17T02:24:15.712Z,12.90
2022-08-17T02:26:43.074Z,12.77
2022-08-17T02:29:11.654Z,12.95
2022-08-17T02:31:38.891Z,11.88
2022-08-17T02:34:06.158Z,11.63
2022-08-17T02:36:48.579Z,11.35
2022-08-17T02:39:15.819Z,13.90
2022-08-17T02:41:43.052Z,13.90
2022-08-17T02:44:11.628Z,10.32
2022-08-17T02:46:38.911Z,14.13
2022-08-17T02:49:06.208Z,13.30
2022-08-17T02:54:40.591Z,10.70
2022-08-17T02:57:03.495Z,11.73
2022-08-17T02:59:32.251Z,10.38
2022-08-17T03:01:59.569Z,9.35
2022-08-17T03:04:27.081Z,9.07
2022-08-17T03:07:13.219Z,7.60
2022-08-17T03:09:40.604Z,9.43
2022-08-17T03:12:08.967Z,8.60
2022-08-17T03:14:41.486Z,8.80
2022-08-17T03:17:09.511Z,8.73
2022-08-17T03:19:39.700Z,7.32
2022-08-17T03:22:36.882Z,8.43
2022-08-17T03:24:57.871Z,7.88
2022-08-17T03:27:25.431Z,6.60
2022-08-17T03:29:54.275Z,7.88
2022-08-17T03:32:21.594Z,7.22
2022-08-17T03:34:49.068Z,7.45
2022-08-17T03:37:17.143Z,7.25
2022-08-17T03:39:44.436Z,7.40
2022-08-17T03:42:31.563Z,7.20
2022-08-17T03:45:02.033Z,7.40
2022-08-17T03:47:29.324Z,7.13
2022-08-17T03:49:56.536Z,4.82
2022-08-17T03:52:23.825Z,7.70
2022-08-17T03:54:51.044Z,6.00
2022-08-17T03:57:18.407Z,6.90
2022-08-17T03:59:45.644Z,7.00
2022-08-17T04:02:17.228Z,5.95
2022-08-17T04:04:44.553Z,6.13
2022-08-17T04:07:11.997Z,4.72
2022-08-17T04:09:39.394Z,4.97
2022-08-17T04:12:06.709Z,5.45
2022-08-17T04:14:33.994Z,4.80
2022-08-17T04:17:01.229Z,4.43
2022-08-17T04:19:29.854Z,5.35
2022-08-17T04:21:57.304Z,4.60
2022-08-17T04:24:24.561Z,5.35
2022-08-17T04:26:53.802Z,6.53
2022-08-17T04:29:21.867Z,5.32
2022-08-17T04:31:49.389Z,5.10
2022-08-17T04:34:19.987Z,5.88
2022-08-17T04:36:54.870Z,5.80
2022-08-17T04:39:22.148Z,5.78
2022-08-17T04:41:49.355Z,6.57
2022-08-17T04:44:28.362Z,4.93
2022-08-17T04:47:03.868Z,6.28
2022-08-17T04:49:31.120Z,6.55
2022-08-17T04:52:04.310Z,6.75
2022-08-17T04:54:32.284Z,7.45
2022-08-17T04:56:59.661Z,8.18
2022-08-17T04:59:26.934Z,8.13
2022-08-17T05:01:54.197Z,7.13
2022-08-17T05:04:33.867Z,7.32
2022-08-17T05:07:03.646Z,8.25
2022-08-17T05:09:31.017Z,7.03
2022-08-17T05:12:00.832Z,7.88
2022-08-17T05:14:33.131Z,9.27
2022-08-17T05:17:01.196Z,7.20
2022-08-17T05:19:29.060Z,8.90
2022-08-17T05:21:56.321Z,8.45
2022-08-17T05:24:39.113Z,9.00
2022-08-17T05:27:10.751Z,9.70
2022-08-17T05:29:46.063Z,8.95
2022-08-17T05:32:39.479Z,9.43
2022-08-17T05:35:01.220Z,9.13
2022-08-17T05:37:28.714Z,9.55
2022-08-17T05:39:58.957Z,8.55
2022-08-17T05:42:26.208Z,9.45
2022-08-17T05:44:53.436Z,9.07
2022-08-17T05:47:21.915Z,8.27
2022-08-17T05:49:49.329Z,8.25
2022-08-17T05:52:23.542Z,9.23
2022-08-17T05:55:01.591Z,9.07
2022-08-17T05:57:53.297Z,7.95
2022-08-17T06:00:30.166Z,8.32
2022-08-17T06:03:07.981Z,8.82
2022-08-17T06:05:45.325Z,9.80
2022-08-17T06:08:13.771Z,10.32
2022-08-17T06:10:43.516Z,10.55
2022-08-17T06:13:16.549Z,9.25
2022-08-17T06:15:50.705Z,10.35
2022-08-17T06:18:19.302Z,10.57
2022-08-17T06:20:49.596Z,9.25
2022-08-17T06:23:24.628Z,7.50
2022-08-17T06:25:53.247Z,9.23
2022-08-17T06:28:22.923Z,5.63
2022-08-17T06:31:00.081Z,10.70
2022-08-17T06:33:31.258Z,8.25
2022-08-17T06:36:01.602Z,10.43
2022-08-17T06:38:37.724Z,5.00
2022-08-17T06:41:09.260Z,10.45
2022-08-17T06:43:47.817Z,9.45
2022-08-17T06:46:19.974Z,7.57
2022-08-17T06:48:50.640Z,7.50
2022-08-17T06:51:19.753Z,9.27
2022-08-17T06:53:49.039Z,8.88
2022-08-17T06:56:22.240Z,8.73
2022-08-17T06:58:49.552Z,8.65
2022-08-17T07:01:29.725Z,9.05
2022-08-17T07:04:00.023Z,7.15
2022-08-17T07:06:40.282Z,9.55
2022-08-17T07:09:09.447Z,9.90
2022-08-17T07:11:39.209Z,8.45
2022-08-17T07:14:17.141Z,9.65
2022-08-17T07:16:47.403Z,10.35
2022-08-17T07:19:16.018Z,9.23
2022-08-17T07:21:46.253Z,8.43
2022-08-17T07:24:30.090Z,8.50
2022-08-17T07:27:05.315Z,7.05
2022-08-17T07:29:34.421Z,7.65
2022-08-17T07:32:03.339Z,10.23
2022-08-17T07:34:59.483Z,8.85
2022-08-17T07:37:26.752Z,9.80
2022-08-17T07:39:59.728Z,8.43
2022-08-17T07:42:45.016Z,7.82
2022-08-17T07:45:15.291Z,9.93
2022-08-17T07:47:49.896Z,7.72
2022-08-17T07:50:25.995Z,11.13
2022-08-17T07:52:53.393Z,7.78
2022-08-17T07:55:28.672Z,11.88
2022-08-17T07:57:56.355Z,12.27
2022-08-17T08:00:31.713Z,10.23
2022-08-17T08:03:12.121Z,11.95
2022-08-17T08:05:50.587Z,12.73
2022-08-17T08:08:38.870Z,13.40
2022-08-17T08:11:08.225Z,13.57
2022-08-17T08:13:36.147Z,13.68
2022-08-17T08:16:14.240Z,14.23
2022-08-17T08:18:57.797Z,14.70
2022-08-17T08:21:32.222Z,13.98
2022-08-17T08:24:01.660Z,13.48
2022-08-17T08:26:33.101Z,12.73
2022-08-17T08:29:04.301Z,9.95
2022-08-17T08:31:41.631Z,14.93
2022-08-17T08:34:54.762Z,13.38
2022-08-17T08:37:15.819Z,13.02
2022-08-17T08:39:48.842Z,13.13
2022-08-17T08:42:19.275Z,11.70
2022-08-17T08:45:00.296Z,13.70
2022-08-17T08:47:38.327Z,13.63
2022-08-17T08:50:37.506Z,12.82
2022-08-17T08:53:11.547Z,12.10
2022-08-17T08:55:46.021Z,14.70
2022-08-17T08:58:32.321Z,13.87
2022-08-17T09:01:06.396Z,14.82
2022-08-17T09:03:52.194Z,7.15
2022-08-17T09:06:38.915Z,15.25
2022-08-17T09:09:14.404Z,13.02
2022-08-17T09:12:02.270Z,10.23
2022-08-17T09:14:44.945Z,9.60
2022-08-17T09:17:15.187Z,8.07
2022-08-17T09:19:46.857Z,9.55
2022-08-17T09:22:21.968Z,6.60
2022-08-17T09:24:51.352Z,6.50
2022-08-17T09:27:20.322Z,6.35
2022-08-17T09:29:49.750Z,5.50
2022-08-17T09:32:18.514Z,5.65
2022-08-17T09:35:12.822Z,6.05
2022-08-17T09:38:05.824Z,5.88
2022-08-17T09:40:38.499Z,5.80
2022-08-17T09:43:12.105Z,4.95
2022-08-17T09:45:41.366Z,5.63
2022-08-17T09:48:12.853Z,6.35
2022-08-17T09:51:05.530Z,6.85
2022-08-17T09:56:25.595Z,6.13
2022-08-17T09:59:03.456Z,7.97
2022-08-17T10:01:36.506Z,7.28
2022-08-17T10:04:27.436Z,6.73
2022-08-17T10:06:58.893Z,7.25
2022-08-17T10:09:37.877Z,6.20
2022-08-17T10:12:34.168Z,5.78
2022-08-17T10:15:18.054Z,5.78
2022-08-17T10:17:50.771Z,4.32
2022-08-17T10:20:21.043Z,3.78
2022-08-17T10:22:54.821Z,4.28
2022-08-17T10:25:26.022Z,4.32
2022-08-17T10:28:00.516Z,4.55
2022-08-17T10:30:29.215Z,4.90
2022-08-17T10:32:58.088Z,4.00
2022-08-17T10:35:29.596Z,4.72
2022-08-17T10:38:06.991Z,4.20
2022-08-17T10:40:37.772Z,4.75
2022-08-17T10:43:17.095Z,3.10
2022-08-17T10:45:47.912Z,4.05
2022-08-17T10:48:32.992Z,4.93
2022-08-17T10:51:05.642Z,5.13
2022-08-17T10:53:55.916Z,5.43
2022-08-17T10:56:40.711Z,4.80
2022-08-17T10:59:09.513Z,4.70
2022-08-17T11:01:55.552Z,5.78
2022-08-17T11:04:32.464Z,6.35
2022-08-17T11:07:05.448Z,5.70
2022-08-17T11:09:38.619Z,6.10
2022-08-17T11:12:11.665Z,5.50
2022-08-17T11:15:03.654Z,6.38
2022-08-17T11:21:02.191Z,7.55
2022-08-17T11:23:43.261Z,7.03
2022-08-17T11:26:21.539Z,7.97
2022-08-17T11:28:52.592Z,8.10
2022-08-17T11:31:38.923Z,6.45
2022-08-17T11:34:13.376Z,8.68
2022-08-17T11:36:59.523Z,8.00
2022-08-17T11:39:35.838Z,9.57
2022-08-17T11:42:05.536Z,8.32
2022-08-17T11:44:41.296Z,6.78
2022-08-17T11:47:11.447Z,7.20
2022-08-17T11:50:00.762Z,8.60
2022-08-17T11:52:46.891Z,9.02
2022-08-17T11:55:39.369Z,6.05
2022-08-17T11:58:33.332Z,7.35
2022-08-17T12:01:00.728Z,8.73
2022-08-17T12:03:55.286Z,6.93
2022-08-17T12:06:41.320Z,10.33
2022-08-17T12:09:11.488Z,9.68
2022-08-17T12:12:11.067Z,11.88
2022-08-17T12:15:05.931Z,13.68
2022-08-17T12:17:39.236Z,14.30
2022-08-17T12:20:14.664Z,13.47
2022-08-17T12:23:04.619Z,7.55
2022-08-17T12:25:47.069Z,9.75
2022-08-17T12:28:48.614Z,14.40
2022-08-17T12:31:27.994Z,11.13
2022-08-17T12:33:55.369Z,10.38
2022-08-17T12:36:26.719Z,11.25
2022-08-17T12:38:55.845Z,13.07
2022-08-17T12:41:30.500Z,11.32
2022-08-17T12:43:58.735Z,13.07
2022-08-17T12:46:27.651Z,13.35
2022-08-17T12:48:55.188Z,11.60
2022-08-17T12:51:26.780Z,11.50
2022-08-17T12:53:55.149Z,13.45
2022-08-17T12:56:22.543Z,13.45
2022-08-17T12:58:52.783Z,11.48
2022-08-17T13:01:23.584Z,10.68
2022-08-17T13:03:53.305Z,11.38
2022-08-17T13:06:27.748Z,12.40
2022-08-17T13:08:55.111Z,12.18
2022-08-17T13:11:23.841Z,11.15
2022-08-17T13:13:52.275Z,12.98
2022-08-17T13:16:20.911Z,13.18
2022-08-17T13:18:49.261Z,10.73
2022-08-17T13:21:25.140Z,9.18
2022-08-17T13:23:57.143Z,12.02
2022-08-17T13:26:27.378Z,10.02
2022-08-17T13:28:54.630Z,10.55
2022-08-17T13:31:22.410Z,7.85
2022-08-17T13:33:49.664Z,9.73
2022-08-17T13:36:27.964Z,9.73
2022-08-17T13:39:06.040Z,9.73
2022-08-17T13:41:34.440Z,8.52
2022-08-17T13:44:01.775Z,9.32
2022-08-17T13:46:30.523Z,8.88
2022-08-17T13:48:59.244Z,9.82
2022-08-17T13:51:33.567Z,7.85
2022-08-17T13:54:06.184Z,6.53
2022-08-17T13:56:48.414Z,9.88
2022-08-17T13:59:16.905Z,7.72
2022-08-17T14:02:03.993Z,11.27
2022-08-17T14:04:32.372Z,6.90
2022-08-17T14:07:03.042Z,9.15
2022-08-17T14:09:37.016Z,11.45
2022-08-17T14:12:06.377Z,9.07
2022-08-17T14:14:33.743Z,8.85
2022-08-17T14:17:01.312Z,10.27
2022-08-17T14:19:28.564Z,8.15
2022-08-17T14:21:55.981Z,9.38
2022-08-17T14:24:29.364Z,7.53
2022-08-17T14:26:56.988Z,7.63
2022-08-17T14:29:25.529Z,11.75
2022-08-17T14:31:54.447Z,10.85
2022-08-17T14:34:22.761Z,11.02
2022-08-17T14:36:50.069Z,9.95
2022-08-17T14:39:18.586Z,6.85
2022-08-17T14:41:47.332Z,10.45
2022-08-17T14:44:14.912Z,11.30
2022-08-17T14:46:43.131Z,9.00
2022-08-17T14:49:11.136Z,10.57
2022-08-17T14:51:43.610Z,11.73
2022-08-17T14:54:33.273Z,11.77
2022-08-17T14:57:04.615Z,10.93
2022-08-17T14:59:48.655Z,10.23
2022-08-17T15:02:19.251Z,10.55
2022-08-17T15:04:46.462Z,10.52
2022-08-17T15:07:14.142Z,11.95
2022-08-17T15:09:41.562Z,9.95
2022-08-17T15:12:16.035Z,11.85
2022-08-17T15:14:43.456Z,6.22
2022-08-17T15:17:10.716Z,11.87
2022-08-17T15:19:38.001Z,12.48
2022-08-17T15:22:05.723Z,10.15
2022-08-17T15:24:33.252Z,11.90
2022-08-17T15:27:00.670Z,12.68
2022-08-17T15:29:29.531Z,9.82
2022-08-17T15:32:00.607Z,10.73
2022-08-17T15:34:28.317Z,13.38
2022-08-17T15:36:55.643Z,12.93
2022-08-17T15:39:23.012Z,11.38
2022-08-17T15:41:58.717Z,8.25
2022-08-17T15:44:32.442Z,9.48
2022-08-17T15:47:03.688Z,10.43
2022-08-17T15:49:30.945Z,6.65
2022-08-17T15:51:58.620Z,7.10
2022-08-17T15:54:25.916Z,9.40
2022-08-17T15:57:01.595Z,8.20
2022-08-17T15:59:29.048Z,7.60
2022-08-17T16:03:13.091Z,7.82
2022-08-17T16:04:45.127Z,6.35
2022-08-17T16:07:15.312Z,5.97
2022-08-17T16:09:42.597Z,7.13
2022-08-17T16:12:11.040Z,7.55
2022-08-17T16:14:38.330Z,6.55
2022-08-17T16:17:38.567Z,7.47
2022-08-17T16:19:55.561Z,5.80
2022-08-17T16:22:30.737Z,6.95
2022-08-17T16:24:57.992Z,5.85
2022-08-17T16:27:25.339Z,8.57
2022-08-17T16:29:55.418Z,8.38
2022-08-17T16:32:31.838Z,7.57
2022-08-17T16:35:03.298Z,6.65
2022-08-17T16:37:30.608Z,7.22
2022-08-17T16:40:01.617Z,7.13
2022-08-17T16:42:29.956Z,6.95
2022-08-17T16:45:01.836Z,7.35
2022-08-17T16:47:29.131Z,5.32
2022-08-17T16:49:56.501Z,6.60
2022-08-17T16:52:32.604Z,6.28
2022-08-17T16:55:01.192Z,6.78
2022-08-17T16:57:29.204Z,7.07
2022-08-17T16:59:56.732Z,7.68
2022-08-17T17:02:28.511Z,7.00
2022-08-17T17:04:58.938Z,6.03
2022-08-17T17:07:36.947Z,7.53
2022-08-17T17:10:06.290Z,7.53
2022-08-17T17:13:01.629Z,6.30
2022-08-17T17:15:22.199Z,6.22
2022-08-17T17:17:50.381Z,6.90
2022-08-17T17:20:18.667Z,4.72
2022-08-17T17:22:49.035Z,6.50
2022-08-17T17:25:20.328Z,7.18
2022-08-17T17:27:50.810Z,7.32
2022-08-17T17:30:19.653Z,6.78
2022-08-17T17:32:50.103Z,6.60
2022-08-17T17:35:19.537Z,6.55
2022-08-17T17:37:48.383Z,7.10
2022-08-17T17:40:17.918Z,7.70
2022-08-17T17:42:45.343Z,7.65
2022-08-17T17:45:15.559Z,6.50
2022-08-17T17:47:42.900Z,7.60
2022-08-17T17:50:10.720Z,7.13
2022-08-17T17:52:42.485Z,9.52
2022-08-17T17:55:19.130Z,9.27
2022-08-17T17:57:52.994Z,11.02
2022-08-17T18:00:22.094Z,8.57
2022-08-17T18:02:54.194Z,9.25
2022-08-17T18:05:36.403Z,8.90
2022-08-17T18:08:10.954Z,9.18
2022-08-17T18:10:48.965Z,7.85
2022-08-17T18:13:22.421Z,7.75
2022-08-17T18:15:53.992Z,7.00
2022-08-17T18:18:27.926Z,6.95
2022-08-17T18:21:00.987Z,6.93
2022-08-17T18:23:28.833Z,6.60
2022-08-17T18:25:58.290Z,5.22
2022-08-17T18:28:26.879Z,5.32
2022-08-17T18:31:07.736Z,4.60
2022-08-17T18:33:35.499Z,5.18
2022-08-17T18:36:02.894Z,4.90
2022-08-17T18:38:31.163Z,4.95
2022-08-17T18:41:01.520Z,4.63
2022-08-17T18:43:44.522Z,5.07
2022-08-17T18:46:28.241Z,4.63
2022-08-17T18:48:58.919Z,4.43
2022-08-17T18:51:41.072Z,3.60
2022-08-17T18:54:16.699Z,4.20
2022-08-17T18:56:48.964Z,4.28
2022-08-17T18:59:23.262Z,3.30
2022-08-17T19:02:10.030Z,4.90
2022-08-17T19:04:42.504Z,5.53
2022-08-17T19:07:11.974Z,4.20
2022-08-17T19:09:41.195Z,4.50
2022-08-17T19:12:14.258Z,4.35
2022-08-17T19:14:42.043Z,4.00
2022-08-17T19:17:13.387Z,4.32
2022-08-17T19:19:45.221Z,4.35
2022-08-17T19:22:29.010Z,3.20
2022-08-17T19:25:04.624Z,3.45
2022-08-17T19:27:42.081Z,4.30
2022-08-17T19:30:14.813Z,3.95
2022-08-17T19:32:42.619Z,5.20
2022-08-17T19:35:17.360Z,4.68
2022-08-17T19:37:48.119Z,4.72
2022-08-17T19:40:48.806Z,4.05
2022-08-17T19:43:17.273Z,3.97
2022-08-17T19:45:52.179Z,4.00
2022-08-17T19:48:24.856Z,3.72
2022-08-17T19:50:54.869Z,4.43
2022-08-17T19:53:47.399Z,3.45
2022-08-17T19:56:18.296Z,3.50
2022-08-17T19:58:56.609Z,4.50
2022-08-17T20:01:34.423Z,4.60
2022-08-17T20:04:07.437Z,4.10
2022-08-17T20:06:37.906Z,4.40
2022-08-17T20:09:14.647Z,4.38
2022-08-17T20:11:46.604Z,5.07
2022-08-17T20:14:17.024Z,3.97
2022-08-17T20:16:44.452Z,4.20
2022-08-17T20:19:17.872Z,4.33
2022-08-17T20:21:50.029Z,4.57
2022-08-17T20:24:20.151Z,4.03
2022-08-17T20:26:58.334Z,5.50
2022-08-17T20:29:39.792Z,4.83
2022-08-17T20:32:22.678Z,5.18
2022-08-17T20:35:00.812Z,4.93
2022-08-17T20:37:32.608Z,5.17
2022-08-17T20:40:15.567Z,4.40
2022-08-17T20:42:43.077Z,4.47
2022-08-17T20:45:25.178Z,4.90
2022-08-17T20:48:22.073Z,4.65
2022-08-17T20:50:45.392Z,4.88
2022-08-17T20:53:32.643Z,4.40
2022-08-17T20:55:59.907Z,4.95
2022-08-17T20:58:42.071Z,4.30
2022-08-17T21:01:13.129Z,4.53
2022-08-17T21:03:50.445Z,4.40
2022-08-17T21:06:20.101Z,4.88
2022-08-17T21:08:49.236Z,4.15
2022-08-17T21:11:56.639Z,4.35
2022-08-17T21:14:26.579Z,4.63
2022-08-17T21:17:08.210Z,5.10
2022-08-17T21:20:00.634Z,5.00
2022-08-17T21:22:40.397Z,4.87
2022-08-17T21:25:14.307Z,4.97
2022-08-17T21:27:48.425Z,5.00
2022-08-17T21:30:44.447Z,5.10
2022-08-17T21:33:21.607Z,4.90
2022-08-17T21:35:53.118Z,4.70
2022-08-17T21:38:33.927Z,5.03
2022-08-17T21:41:01.281Z,4.53
2022-08-17T21:43:30.769Z,4.57
2022-08-17T21:49:39.631Z,5.00
2022-08-17T21:52:08.412Z,4.00
2022-08-17T21:54:37.109Z,4.70
2022-08-17T21:57:05.798Z,5.77
2022-08-17T21:59:34.375Z,4.47
2022-08-17T22:02:22.109Z,5.43
2022-08-17T22:04:57.436Z,5.00
2022-08-17T22:07:36.576Z,4.27
2022-08-17T22:10:05.061Z,4.73
2022-08-17T22:16:27.820Z,4.00
2022-08-17T22:18:56.639Z,4.17
2022-08-17T22:21:25.135Z,4.20
2022-08-17T22:24:02.227Z,4.57
2022-08-17T22:26:44.392Z,3.90
2022-08-17T22:29:31.741Z,4.33
2022-08-17T22:32:01.032Z,4.60
2022-08-17T22:34:28.270Z,4.27
2022-08-17T22:37:10.437Z,4.53
2022-08-17T22:39:41.456Z,4.33
2022-08-17T22:42:14.382Z,5.13
2022-08-17T22:45:12.748Z,4.53
2022-08-17T22:51:13.723Z,4.13
2022-08-17T22:53:46.122Z,5.00
2022-08-17T22:56:15.526Z,4.60
2022-08-17T22:58:43.902Z,4.20
2022-08-17T23:04:33.815Z,4.80
2022-08-17T23:07:02.424Z,4.50
2022-08-17T23:09:29.643Z,4.53
2022-08-17T23:12:06.209Z,4.67
2022-08-17T23:14:55.171Z,5.43
2022-08-17T23:17:22.475Z,3.70
2022-08-17T23:19:49.808Z,4.30
2022-08-17T23:22:18.472Z,3.83
2022-08-17T23:24:47.000Z,4.17
2022-08-17T23:27:14.223Z,3.47
2022-08-17T23:29:41.479Z,4.20
2022-08-17T23:32:09.880Z,3.87
2022-08-17T23:34:37.510Z,3.33
2022-08-17T23:37:05.172Z,3.77
2022-08-17T23:39:33.897Z,4.00
2022-08-17T23:42:02.224Z,4.20
2022-08-17T23:44:29.542Z,4.60
2022-08-17T23:46:58.541Z,3.90
2022-08-17T23:49:25.998Z,4.07
2022-08-17T23:51:53.291Z,3.87
2022-08-17T23:54:23.346Z,4.17
